Latest Weather Observations for Portland Harbour

IDV60801

Issued at 12:42 pm EDT Friday 18 October 2019 (issued every 10 minutes, with the page automatically refreshed every 10 minutes)

About weather observations | Map of weather stations | Latest weather observations for VIC | Other Formats
Station Details ID: 090192 Name: PORTLAND NTC AWS Lat: -38.34 Lon: 141.61 Height: 0.0 m
Data from the previous 72 hours. | See also: Recent months for locations in Victoria
Date/Time
EDT
Temp
°C
App
Temp
°C
Dew
Point
°C
Rel
Hum
%
Delta-T
°C
Wind Press
QNH
hPa
Press
MSL
hPa
Rain since
9am
mm
Dir  Spd
km/h
Gust
km/h
Spd
kts
Gust
kts
18/12:30pm 15.2 - - - - NW 33 54 18 29 1009.3 1009.3 -
18/12:00pm 15.4 - - - - NW 39 65 21 35 1009.5 1009.5 -
18/11:30am 14.8 - - - - NW 39 57 21 31 1009.7 1009.7 -
18/11:00am 14.4 - - - - NNW 39 59 21 32 1009.9 1009.9 -
18/10:34am 13.6 - - - - NW 33 52 18 28 1010.6 1010.6 -
18/10:30am 13.5 - - - - NW 37 52 20 28 1010.5 1010.5 -
18/10:11am 13.2 - - - - NW 39 59 21 32 1010.5 1010.5 -
18/10:00am 13.0 - - - - NNW 41 59 22 32 1010.5 1010.5 -
18/09:30am 12.4 - - - - NNW 41 59 22 32 1010.8 1010.8 -
18/09:13am 12.2 - - - - NNW 33 52 18 28 1011.0 1011.0 -
18/09:00am 12.1 - - - - NNW 35 50 19 27 1011.3 1011.3 -
18/08:41am 12.0 - - - - NNW 32 50 17 27 1011.4 1011.4 -
18/08:30am 12.0 - - - - NNW 30 44 16 24 1011.6 1011.6 -
18/08:00am 11.8 - - - - NNW 30 44 16 24 1011.3 1011.3 -
18/07:30am 11.3 - - - - NNW 28 43 15 23 1011.4 1011.4 -
18/07:00am 11.2 - - - - NNW 28 39 15 21 1011.5 1011.5 -
18/06:30am 11.3 - - - - NNW 20 30 11 16 1011.4 1011.4 -
18/06:00am 11.6 - - - - NNW 24 33 13 18 1011.3 1011.3 -
18/05:30am 11.7 - - - - NNW 28 37 15 20 1011.6 1011.6 -
18/05:00am 11.5 - - - - NNW 22 32 12 17 1011.9 1011.9 -
18/04:30am 11.4 - - - - NNW 20 32 11 17 1012.2 1012.2 -
18/04:00am 11.2 - - - - NW 20 30 11 16 1012.6 1012.6 -
18/03:30am 11.4 - - - - NNW 22 30 12 16 1012.8 1012.8 -
18/03:00am 11.4 - - - - NNW 22 32 12 17 1013.3 1013.3 -
18/02:30am 11.4 - - - - NNW 20 28 11 15 1013.6 1013.6 -
18/02:00am 11.2 - - - - NNW 19 30 10 16 1014.1 1014.1 -
18/01:30am 11.2 - - - - NNW 19 26 10 14 1014.6 1014.6 -
18/01:00am 11.3 - - - - NNW 20 28 11 15 1015.0 1015.0 -
18/12:30am 11.1 - - - - NNW 17 24 9 13 1015.0 1015.0 -
18/12:00am 11.3 - - - - NNW 15 20 8 11 1015.2 1015.2 -
 
Date/Time
EDT
Temp
°C
App
Temp
°C
Dew
Point
°C
Rel
Hum
%
Delta-T
°C
Wind Press
QNH
hPa
Press
MSL
hPa
Rain since
9am
mm
Dir  Spd
km/h
Gust
km/h
Spd
kts
Gust
kts
17/11:30pm 11.4 - - - - NNW 15 19 8 10 1015.3 1015.3 -
17/11:00pm 11.4 - - - - NW 13 19 7 10 1015.6 1015.6 -
17/10:30pm 11.4 - - - - NNW 17 22 9 12 1015.5 1015.5 -
17/10:00pm 11.8 - - - - WNW 15 20 8 11 1015.7 1015.7 -
17/09:30pm 11.9 - - - - WNW 19 26 10 14 1015.8 1015.8 -
17/09:00pm 11.8 - - - - WNW 13 20 7 11 1015.7 1015.7 -
17/08:30pm 12.0 - - - - WNW 19 30 10 16 1015.5 1015.5 -
17/08:00pm 12.1 - - - - WNW 19 28 10 15 1015.3 1015.3 -
17/07:30pm 12.0 - - - - W 20 32 11 17 1015.3 1015.3 -
17/07:00pm 11.9 - - - - W 22 35 12 19 1015.1 1015.1 -
17/06:30pm 12.1 - - - - WSW 22 33 12 18 1014.9 1014.9 -
17/06:00pm 12.4 - - - - W 26 37 14 20 1014.6 1014.6 -
17/05:30pm 12.5 - - - - WSW 28 39 15 21 1014.3 1014.3 -
17/05:00pm 12.3 - - - - WSW 33 46 18 25 1013.9 1013.9 -
17/04:30pm 12.3 - - - - WSW 32 48 17 26 1013.5 1013.5 -
17/04:00pm 12.4 - - - - WSW 39 52 21 28 1013.4 1013.4 -
17/03:30pm 12.3 - - - - WSW 35 54 19 29 1013.5 1013.5 -
17/03:07pm 11.6 - - - - WSW 30 54 16 29 1013.3 1013.3 -
17/03:00pm 11.4 - - - - SW 33 46 18 25 1013.4 1013.4 -
17/02:32pm 10.9 - - - - SW 32 52 17 28 1013.4 1013.4 -
17/02:30pm 11.3 - - - - SW 30 43 16 23 1013.3 1013.3 -
17/02:00pm 12.6 - - - - WSW 37 59 20 32 1012.8 1012.8 -
17/01:43pm 12.6 - - - - WSW 43 61 23 33 1012.7 1012.7 -
17/01:30pm 12.4 - - - - WSW 43 56 23 30 1012.5 1012.5 -
17/01:04pm 12.4 - - - - WSW 46 67 25 36 1012.1 1012.1 -
17/01:00pm 12.4 - - - - WSW 46 63 25 34 1012.0 1012.0 -
17/12:30pm 12.5 - - - - WSW 44 63 24 34 1011.4 1011.4 -
17/12:08pm 11.6 - - - - WSW 39 61 21 33 1011.1 1011.1 -
17/12:00pm 11.6 - - - - WSW 43 57 23 31 1011.0 1011.0 -
17/11:37am 12.2 - - - - WSW 39 57 21 31 1010.4 1010.4 -
17/11:30am 11.5 - - - - WSW 41 57 22 31 1010.4 1010.4 -
17/11:00am 11.0 - - - - WSW 43 63 23 34 1010.1 1010.1 -
17/10:30am 11.4 - - - - WSW 44 65 24 35 1009.7 1009.7 -
17/10:00am 11.2 - - - - WSW 39 57 21 31 1009.1 1009.1 -
17/09:30am 10.4 - - - - WSW 33 54 18 29 1009.1 1009.1 -
17/09:09am 9.5 - - - - WSW 37 56 20 30 1008.9 1008.9 -
17/09:00am 9.3 - - - - WSW 33 48 18 26 1009.0 1009.0 -
17/08:34am 11.1 - - - - W 32 61 17 33 1008.4 1008.4 -
17/08:30am 11.0 - - - - W 32 44 17 24 1008.2 1008.2 -
17/08:05am 10.3 - - - - WSW 35 54 19 29 1008.2 1008.2 -
17/08:00am 11.2 - - - - WSW 33 48 18 26 1008.2 1008.2 -
17/07:37am 10.8 - - - - WSW 28 46 15 25 1007.9 1007.9 -
17/07:30am 11.2 - - - - WSW 33 50 18 27 1008.0 1008.0 -
17/07:04am 10.8 - - - - W 30 50 16 27 1007.4 1007.4 -
17/07:00am 10.7 - - - - W 30 43 16 23 1007.4 1007.4 -
17/06:30am 10.8 - - - - WSW 32 48 17 26 1007.1 1007.1 -
17/06:26am 10.6 - - - - WSW 28 46 15 25 1007.0 1007.0 -
17/06:00am 9.8 - - - - WSW 26 37 14 20 1006.8 1006.8 -
17/05:50am 9.7 - - - - W 26 57 14 31 1006.6 1006.6 -
17/05:48am 10.1 - - - - W 24 57 13 31 1006.7 1006.7 -
17/05:30am 9.9 - - - - W 22 32 12 17 1006.5 1006.5 -
17/05:00am 10.2 - - - - W 24 35 13 19 1006.3 1006.3 -
17/04:30am 9.8 - - - - W 20 32 11 17 1006.3 1006.3 -
17/04:00am 9.8 - - - - W 20 39 11 21 1006.2 1006.2 -
17/03:30am 9.5 - - - - W 17 24 9 13 1006.4 1006.4 -
17/03:00am 9.3 - - - - W 13 19 7 10 1006.5 1006.5 -
17/02:30am 8.7 - - - - W 11 20 6 11 1006.6 1006.6 -
17/02:00am 8.8 - - - - WNW 24 37 13 20 1006.9 1006.9 -
17/01:41am 9.0 - - - - NW 28 48 15 26 1007.2 1007.2 -
17/01:30am 9.4 - - - - NW 20 30 11 16 1006.8 1006.8 -
17/01:00am 9.3 - - - - NW 17 26 9 14 1007.0 1007.0 -
17/12:30am 9.4 - - - - NNW 17 22 9 12 1007.4 1007.4 -
17/12:00am 9.5 - - - - NNW 20 26 11 14 1007.3 1007.3 -
 
Date/Time
EDT
Temp
°C
App
Temp
°C
Dew
Point
°C
Rel
Hum
%
Delta-T
°C
Wind Press
QNH
hPa
Press
MSL
hPa
Rain since
9am
mm
Dir  Spd
km/h
Gust
km/h
Spd
kts
Gust
kts
16/11:30pm 9.8 - - - - NNW 15 20 8 11 1007.3 1007.3 -
16/11:00pm 10.1 - - - - NW 17 26 9 14 1008.2 1008.2 -
16/10:30pm 9.8 - - - - WNW 17 26 9 14 1008.1 1008.1 -
16/10:11pm 10.2 - - - - WNW 30 54 16 29 1008.3 1008.3 -
16/10:07pm 11.1 - - - - WNW 22 54 12 29 1008.3 1008.3 -
16/10:00pm 12.4 - - - - NW 17 26 9 14 1008.0 1008.0 -
16/09:30pm 12.4 - - - - WNW 13 20 7 11 1008.1 1008.1 -
16/09:00pm 12.9 - - - - NNW 9 15 5 8 1008.1 1008.1 -
16/08:30pm 12.9 - - - - NW 9 15 5 8 1008.3 1008.3 -
16/08:00pm 13.0 - - - - WNW 9 17 5 9 1008.2 1008.2 -
16/07:30pm 13.4 - - - - WNW 13 22 7 12 1008.1 1008.1 -
16/07:00pm 13.6 - - - - WNW 19 26 10 14 1008.1 1008.1 -
16/06:30pm 14.1 - - - - W 22 30 12 16 1008.2 1008.2 -
16/06:00pm 14.5 - - - - W 24 35 13 19 1008.4 1008.4 -
16/05:30pm 14.4 - - - - W 24 33 13 18 1008.3 1008.3 -
16/05:00pm 14.3 - - - - WSW 26 39 14 21 1008.3 1008.3 -
16/04:30pm 15.0 - - - - WSW 20 32 11 17 1008.3 1008.3 -
16/04:00pm 14.4 - - - - WSW 22 30 12 16 1008.4 1008.4 -
16/03:30pm 14.0 - - - - WSW 22 33 12 18 1008.7 1008.7 -
16/03:00pm 13.9 - - - - WSW 24 32 13 17 1009.1 1009.1 -
16/02:30pm 14.2 - - - - WSW 24 32 13 17 1009.4 1009.4 -
16/02:00pm 14.4 - - - - WSW 22 32 12 17 1009.4 1009.4 -
16/01:30pm 13.7 - - - - WSW 22 30 12 16 1009.5 1009.5 -
16/01:00pm 13.5 - - - - SSW 15 22 8 12 1009.6 1009.6 -
16/12:30pm 13.3 - - - - SE 7 13 4 7 1009.8 1009.8 -
16/12:00pm 12.3 - - - - NE 7 11 4 6 1010.1 1010.1 -
16/11:30am 12.1 - - - - NNE 6 7 3 4 1010.4 1010.4 -
16/11:00am 11.7 - - - - NE 7 11 4 6 1010.3 1010.3 -
16/10:30am 11.6 - - - - SW 9 15 5 8 1010.7 1010.7 -
16/10:00am 11.8 - - - - SW 13 17 7 9 1011.1 1011.1 -
16/09:30am 11.4 - - - - SW 7 9 4 5 1010.9 1010.9 -
16/09:00am 11.1 - - - - SW 9 11 5 6 1010.8 1010.8 -
16/08:30am 11.1 - - - - WSW 7 9 4 5 1011.0 1011.0 -
16/08:00am 11.1 - - - - SW 7 9 4 5 1011.0 1011.0 -
16/07:30am 10.9 - - - - WSW 11 13 6 7 1010.9 1010.9 -
16/07:00am 11.0 - - - - WSW 6 9 3 5 1010.9 1010.9 -
16/06:30am 10.9 - - - - WSW 7 11 4 6 1010.9 1010.9 -
16/06:00am 10.8 - - - - WSW 7 9 4 5 1010.7 1010.7 -
16/05:30am 10.9 - - - - W 7 11 4 6 1010.6 1010.6 -
16/05:00am 10.9 - - - - W 7 9 4 5 1010.7 1010.7 -
16/04:30am 11.2 - - - - WNW 6 9 3 5 1011.1 1011.1 -
16/04:00am 11.2 - - - - WNW 6 7 3 4 1011.1 1011.1 -
16/03:30am 12.3 - - - - E 6 9 3 5 1011.2 1011.2 -
16/03:00am 11.9 - - - - WSW 2 7 1 4 1011.6 1011.6 -
16/02:30am 11.5 - - - - SW 2 4 1 2 1012.1 1012.1 -
16/02:00am 11.4 - - - - SW 4 6 2 3 1012.7 1012.7 -
16/01:30am 11.6 - - - - WSW 4 6 2 3 1013.2 1013.2 -
16/01:00am 11.6 - - - - WSW 4 6 2 3 1013.4 1013.4 -
16/12:30am 11.9 - - - - SSW 2 4 1 2 1013.5 1013.5 -
16/12:00am 12.0 - - - - WSW 4 6 2 3 1013.9 1013.9 -
 
Date/Time
EDT
Temp
°C
App
Temp
°C
Dew
Point
°C
Rel
Hum
%
Delta-T
°C
Wind Press
QNH
hPa
Press
MSL
hPa
Rain since
9am
mm
Dir  Spd
km/h
Gust
km/h
Spd
kts
Gust
kts
15/11:30pm 12.3 - - - - SSE 4 6 2 3 1013.8 1013.8 -
15/11:00pm 11.9 - - - - CALM 0 4 0 2 1013.8 1013.8 -
15/10:30pm 11.7 - - - - SSW 4 6 2 3 1014.4 1014.4 -
15/10:00pm 11.9 - - - - SSW 4 6 2 3 1014.5 1014.5 -
15/09:30pm 11.9 - - - - SW 6 6 3 3 1014.6 1014.6 -
15/09:00pm 11.9 - - - - SW 7 9 4 5 1014.5 1014.5 -
15/08:30pm 11.9 - - - - SW 6 9 3 5 1014.5 1014.5 -
15/08:00pm 12.1 - - - - SSW 9 13 5 7 1014.5 1014.5 -
15/07:30pm 12.4 - - - - S 7 11 4 6 1014.1 1014.1 -
15/07:00pm 12.3 - - - - SSW 11 13 6 7 1014.4 1014.4 -
15/06:30pm 12.5 - - - - SSW 15 20 8 11 1014.2 1014.2 -
15/06:00pm 12.5 - - - - SSW 17 24 9 13 1013.9 1013.9 -
15/05:30pm 12.2 - - - - SSW 19 26 10 14 1013.5 1013.5 -
15/05:00pm 11.9 - - - - SSW 22 30 12 16 1013.9 1013.9 -
15/04:30pm 12.0 - - - - SSW 30 37 16 20 1013.7 1013.7 -
15/04:00pm 14.9 - - - - W 24 35 13 19 1013.5 1013.5 -
15/03:30pm 15.0 - - - - W 20 32 11 17 1013.0 1013.0 -
15/03:00pm 14.7 - - - - W 24 35 13 19 1013.6 1013.6 -
15/02:30pm 14.4 - - - - WNW 15 26 8 14 1013.7 1013.7 -
15/02:00pm 14.2 - - - - WSW 19 26 10 14 1014.1 1014.1 -
15/01:30pm 14.0 - - - - NE 9 17 5 9 1013.9 1013.9 -
15/01:00pm 13.5 - - - - E 11 15 6 8 1014.0 1014.0 -

Other formats

Comma delimited format used in spreadsheet applications
http://www.bom.gov.au/fwo/IDV60801/IDV60801.95826.axf

JavaScript Object Notation format (JSON) in row-major order
http://www.bom.gov.au/fwo/IDV60801/IDV60801.95826.json

Data quality

Most of these data are generated automatically and are frequently updated. Quality checks on data are not normally performed. It is possible for incorrect values to appear. Refer to information at About Latest Weather Observations and please check the disclaimer before using these data.